Relatórios de METAR próximas

 

LPAR - Alverca, Portugal
Distance from station: S 38km
Actualizado: 24/02/2020 17:00
NÃO Actual
Céu Limpo
Céu Limpo
 Vento de NE
Vento: NE 7 km/h
Temperatura: 21°C
Ponto de Orvalho: 9°C
Humidade: 46%
Barómetro: 1025 hPa
Resumo: Céu Limpo
Visibilidade: greater than 10 km
2020/02/24 17:00 LPAR 241700Z 04004KT CAVOK 21/09 Q1025
LPPT - Lisbon/Portela, Portugal
Distance from station: S 52km
Actualizado: 25/02/2020 23:30
Parc. Nublado
Parc. Nublado
 Vento de NNO
Vento: NNO 11 km/h
Temperatura: 11°C
Ponto de Orvalho: 8°C
Humidade: 82%
Barómetro: 1027 hPa
Nuvens: Parc. Nublado
Visibilidade: 10 km
Cloud details: Parc. Nublado 762 m
2020/02/25 23:30 LPPT 252330Z 34006KT 300V030 9999 SCT025 11/08 Q1027
 
LPST - Sintra/Granja (a, Portugal
Distance from station: SSO 53km
Actualizado: 24/02/2020 17:00
NÃO Actual
Céu Limpo
Céu Limpo
 Vento de NO
Vento: NO 11 km/h
Temperatura: 17°C
Ponto de Orvalho: 10°C
Humidade: 64%
Barómetro: 1026 hPa
Resumo: Céu Limpo
Visibilidade: greater than 10 km
2020/02/24 17:00 LPST 241700Z 31006KT CAVOK 17/10 Q1026
LPMT - Montijo (por-Afb, Portugal
Distance from station: S 59km
Actualizado: 25/02/2020 23:00
Parc. Nublado
Parc. Nublado
 Vento de N
Vento: N 17 km/h
Temperatura: 12°C
Ponto de Orvalho: 8°C
Humidade: 77%
Barómetro: 1027 hPa
Nuvens: Parc. Nublado
Visibilidade: 10 km
Cloud details: Few Clouds 610 m
Parc. Nublado 792 m
2020/02/25 23:00 LPMT 252300Z 36009KT 330V040 9999 FEW020 SCT026 12/08 Q1027
 
LPCS - Cascais, Portugal
Distance from station: SSO 63km
Actualizado: 25/02/2020 19:00
NÃO Actual
Muito Nublado
Muito Nublado
 Vento de N
Vento: N 15 km/h
Temperatura: 14°C
Ponto de Orvalho: 12°C
Humidade: 88%
Barómetro: 1025 hPa
Nuvens: Muito Nublado
Visibilidade: 10 km
Cloud details: Parc. Nublado 244 m
Muito Nublado 427 m
2020/02/25 19:00 LPCS 251900Z 36008KT 330V040 9999 SCT008 BKN014 14/12 Q1025
LPMR - Monte Real(Por-A, Portugal
Distance from station: N 67km
Actualizado: 25/02/2020 23:00
Muito Nublado
Muito Nublado
 Vento de N
Vento: N 9 km/h
Temperatura: 11°C
Ponto de Orvalho: 6°C
Humidade: 72%
Barómetro: 1028 hPa
Nuvens: Muito Nublado
Visibilidade: 10 km
Cloud details: Few Clouds 610 m
Muito Nublado 975 m
2020/02/25 23:00 LPMR 252300Z 35005KT 9999 FEW020 BKN032 11/06 Q1028